Time;durP1;ratioP1;P1;durP2;ratioP2;P2;SDS_P1;SDS_P2;PMS_P1;PMS_P2;Temp;Humidity;BMP_temperature;BMP_pressure;BME280_temperature;BME280_humidity;BME280_pressure;Samples;Min_cycle;Max_cycle;Signal;HPM_P1;HPM_P2
2022/09/09 00:02:12;;;;;;;59.20;3.47;;;;;;;;;;5071147;28;20452;-65
2022/09/09 00:04:39;;;;;;;59.40;3.83;;;;;;;;;;5071154;28;20484;-65
2022/09/09 00:07:11;;;;;;;60.70;3.20;;;;;;;;;;5069387;28;20452;-65
2022/09/09 00:09:44;;;;;;;59.67;3.20;;;;;;;;;;5074089;28;20445;-65
2022/09/09 00:12:13;;;;;;;61.70;3.60;;;;;;;;;;5075067;28;20453;-65
2022/09/09 00:14:43;;;;;;;59.07;3.13;;;;;;;;;;5074808;28;20467;-65
2022/09/09 00:17:17;;;;;;;58.70;3.30;;;;;;;;;;5075144;28;20455;-65
2022/09/09 00:19:50;;;;;;;58.70;3.20;;;;;;;;;;5071339;28;20842;-65
2022/09/09 00:22:18;;;;;;;58.57;3.20;;;;;;;;;;5074829;28;20488;-65
2022/09/09 00:24:46;;;;;;;58.57;3.33;;;;;;;;;;5074688;28;20498;-65
2022/09/09 00:27:20;;;;;;;58.97;3.40;;;;;;;;;;5074713;28;20498;-65
2022/09/09 00:29:53;;;;;;;59.10;3.30;;;;;;;;;;5068507;28;20459;-65
2022/09/09 00:32:22;;;;;;;59.63;3.97;;;;;;;;;;5074942;28;20857;-65
2022/09/09 00:34:51;;;;;;;58.60;3.10;;;;;;;;;;5074510;28;20940;-65
2022/09/09 00:37:19;;;;;;;58.67;3.30;;;;;;;;;;5074651;28;20455;-65
2022/09/09 00:39:47;;;;;;;58.60;3.07;;;;;;;;;;5069764;28;20986;-65
2022/09/09 00:42:16;;;;;;;64.03;3.10;;;;;;;;;;5071679;28;20840;-65
2022/09/09 00:44:52;;;;;;;61.97;3.60;;;;;;;;;;5074574;28;20864;-65
2022/09/09 00:47:29;;;;;;;58.60;3.20;;;;;;;;;;5074474;28;20443;-65
2022/09/09 00:50:02;;;;;;;58.77;3.20;;;;;;;;;;5071605;28;20453;-65
2022/09/09 00:52:33;;;;;;;58.67;3.10;;;;;;;;;;5073132;28;20810;-65
2022/09/09 00:55:05;;;;;;;59.57;5.20;;;;;;;;;;5074417;28;20445;-65
2022/09/09 00:57:32;;;;;;;58.90;3.30;;;;;;;;;;5074382;28;20455;-65
2022/09/09 01:00:19;;;;;;;59.50;3.30;;;;;;;;;;5073775;28;20455;-65
2022/09/09 01:02:53;;;;;;;63.27;3.23;;;;;;;;;;5068642;28;20482;-65
2022/09/09 01:05:22;;;;;;;58.60;3.00;;;;;;;;;;5074207;28;20448;-65
2022/09/09 01:07:50;;;;;;;59.10;3.00;;;;;;;;;;5074209;28;20750;-65
2022/09/09 01:10:22;;;;;;;59.10;2.97;;;;;;;;;;5073714;28;20483;-65
2022/09/09 01:12:50;;;;;;;58.60;2.80;;;;;;;;;;5070577;28;20989;-65
2022/09/09 01:15:20;;;;;;;59.20;3.30;;;;;;;;;;5074215;28;20460;-65
2022/09/09 01:17:58;;;;;;;58.80;3.00;;;;;;;;;;5067007;28;20456;-65
2022/09/09 01:20:26;;;;;;;59.40;3.30;;;;;;;;;;5073598;28;20462;-65
2022/09/09 01:23:02;;;;;;;58.70;3.00;;;;;;;;;;5071608;28;21066;-65
2022/09/09 01:25:47;;;;;;;61.17;3.23;;;;;;;;;;5073541;28;20453;-65
2022/09/09 01:28:18;;;;;;;58.87;3.10;;;;;;;;;;5073642;28;20451;-65
2022/09/09 01:30:45;;;;;;;58.87;3.40;;;;;;;;;;5073499;28;20446;-65
2022/09/09 01:33:15;;;;;;;58.57;3.37;;;;;;;;;;5068474;28;20485;-65
2022/09/09 01:35:45;;;;;;;62.00;4.03;;;;;;;;;;5073471;28;20569;-65
2022/09/09 01:38:12;;;;;;;58.47;2.93;;;;;;;;;;5073281;28;20543;-65
2022/09/09 01:40:40;;;;;;;59.60;3.30;;;;;;;;;;5073349;28;20452;-65
2022/09/09 01:43:07;;;;;;;58.70;3.20;;;;;;;;;;5071679;28;20472;-65
2022/09/09 01:45:36;;;;;;;58.30;2.90;;;;;;;;;;5065514;28;20540;-65
2022/09/09 01:48:03;;;;;;;58.43;2.93;;;;;;;;;;5073068;28;20445;-65
2022/09/09 01:50:30;;;;;;;60.13;3.43;;;;;;;;;;5072935;28;20457;-65
2022/09/09 01:52:59;;;;;;;58.40;3.30;;;;;;;;;;5073002;28;20477;-65
2022/09/09 01:55:30;;;;;;;59.30;3.30;;;;;;;;;;5070671;28;20471;-65
2022/09/09 01:58:02;;;;;;;59.10;3.20;;;;;;;;;;5072930;28;20449;-65
2022/09/09 02:00:32;;;;;;;59.10;3.20;;;;;;;;;;5072899;28;20447;-65
2022/09/09 02:03:04;;;;;;;58.70;2.80;;;;;;;;;;5073018;28;20519;-65
2022/09/09 02:05:36;;;;;;;58.27;2.80;;;;;;;;;;5068371;28;20470;-65
2022/09/09 02:08:07;;;;;;;58.40;3.20;;;;;;;;;;5072700;28;20448;-65
2022/09/09 02:10:38;;;;;;;58.50;3.07;;;;;;;;;;5072453;28;20863;-65
2022/09/09 02:13:08;;;;;;;58.47;3.00;;;;;;;;;;5073065;28;20472;-65
2022/09/09 02:15:40;;;;;;;58.57;3.13;;;;;;;;;;5070697;28;20491;-65
2022/09/09 02:18:09;;;;;;;59.20;3.20;;;;;;;;;;5068554;28;20480;-65
2022/09/09 02:20:38;;;;;;;58.90;3.20;;;;;;;;;;5072274;28;20448;-65
2022/09/09 02:23:05;;;;;;;59.10;3.20;;;;;;;;;;5072417;28;20829;-65
2022/09/09 02:25:35;;;;;;;58.60;3.00;;;;;;;;;;5072496;28;20488;-65
2022/09/09 02:28:03;;;;;;;59.57;3.30;;;;;;;;;;5070055;28;20471;-65
2022/09/09 02:30:31;;;;;;;59.07;3.27;;;;;;;;;;5071823;28;20449;-65
2022/09/09 02:32:59;;;;;;;59.67;3.23;;;;;;;;;;5072280;28;20472;-65
2022/09/09 02:35:30;;;;;;;58.43;2.80;;;;;;;;;;5072145;28;20466;-65
2022/09/09 02:38:01;;;;;;;59.30;2.80;;;;;;;;;;5068343;28;20484;-65
2022/09/09 02:40:28;;;;;;;58.77;3.40;;;;;;;;;;5071914;28;20451;-65
2022/09/09 02:42:56;;;;;;;60.07;3.17;;;;;;;;;;5072226;28;20472;-65
2022/09/09 02:45:25;;;;;;;58.83;3.00;;;;;;;;;;5072142;28;20483;-65
2022/09/09 02:47:57;;;;;;;58.90;3.43;;;;;;;;;;5068045;28;20465;-65
2022/09/09 02:50:27;;;;;;;58.53;3.10;;;;;;;;;;5070165;28;20459;-65
2022/09/09 02:53:03;;;;;;;58.97;3.53;;;;;;;;;;5072102;28;20472;-65
2022/09/09 02:55:37;;;;;;;62.30;4.03;;;;;;;;;;5072086;28;20448;-65
2022/09/09 02:58:06;;;;;;;59.23;2.90;;;;;;;;;;5070547;28;20448;-65
2022/09/09 03:00:35;;;;;;;58.77;3.00;;;;;;;;;;5071181;28;20849;-65
2022/09/09 03:03:03;;;;;;;58.47;2.70;;;;;;;;;;5072099;28;20530;-65
2022/09/09 03:05:30;;;;;;;58.47;3.03;;;;;;;;;;5072045;28;20482;-65
2022/09/09 03:07:57;;;;;;;58.87;3.10;;;;;;;;;;5072116;28;20451;-65
2022/09/09 03:10:25;;;;;;;58.57;2.80;;;;;;;;;;5068703;28;20468;-65
2022/09/09 03:12:52;;;;;;;58.77;2.90;;;;;;;;;;5071587;28;20496;-65
2022/09/09 03:15:20;;;;;;;58.67;2.90;;;;;;;;;;5067029;28;20475;-65
2022/09/09 03:17:47;;;;;;;58.50;3.10;;;;;;;;;;5071891;28;20727;-65
2022/09/09 03:20:15;;;;;;;62.30;3.63;;;;;;;;;;5065158;28;20464;-65
2022/09/09 03:22:44;;;;;;;59.37;3.80;;;;;;;;;;5071600;28;20444;-65
2022/09/09 03:25:12;;;;;;;58.87;3.50;;;;;;;;;;5071599;28;20490;-65
2022/09/09 03:27:40;;;;;;;58.67;3.10;;;;;;;;;;5071528;28;20561;-65
2022/09/09 03:30:08;;;;;;;59.00;3.33;;;;;;;;;;5069744;28;20447;-65
2022/09/09 03:32:35;;;;;;;61.73;3.63;;;;;;;;;;5064611;28;20455;-65
2022/09/09 03:35:02;;;;;;;62.60;3.87;;;;;;;;;;5071615;28;20443;-65
2022/09/09 03:37:29;;;;;;;59.10;3.20;;;;;;;;;;5071583;28;20452;-65
2022/09/09 03:39:56;;;;;;;59.10;3.30;;;;;;;;;;5071184;28;20444;-65
2022/09/09 03:42:23;;;;;;;59.07;3.20;;;;;;;;;;5067872;28;20831;-65
2022/09/09 03:44:52;;;;;;;59.37;3.73;;;;;;;;;;5075156;28;20479;-65
2022/09/09 03:47:19;;;;;;;59.87;3.50;;;;;;;;;;5075460;28;20501;-65
2022/09/09 03:49:46;;;;;;;59.00;3.03;;;;;;;;;;5075435;28;20450;-65
2022/09/09 03:52:13;;;;;;;58.73;3.43;;;;;;;;;;5069323;28;20468;-65
2022/09/09 03:54:42;;;;;;;58.90;3.30;;;;;;;;;;5075199;28;20467;-65
2022/09/09 03:57:09;;;;;;;59.00;3.20;;;;;;;;;;5075544;28;20525;-65
2022/09/09 03:59:36;;;;;;;59.23;3.40;;;;;;;;;;5074936;28;20447;-65
2022/09/09 04:02:05;;;;;;;58.80;3.10;;;;;;;;;;5074789;28;20812;-65
2022/09/09 04:04:32;;;;;;;58.57;3.00;;;;;;;;;;5066974;28;20487;-65
2022/09/09 04:06:59;;;;;;;58.77;3.10;;;;;;;;;;5075067;28;20477;-65
2022/09/09 04:09:26;;;;;;;58.77;3.40;;;;;;;;;;5074674;28;20447;-65
2022/09/09 04:11:54;;;;;;;59.27;3.27;;;;;;;;;;5074971;28;20451;-65
2022/09/09 04:14:21;;;;;;;59.53;3.63;;;;;;;;;;5071837;28;20483;-65
2022/09/09 04:16:49;;;;;;;59.57;3.50;;;;;;;;;;5074989;28;20452;-65
2022/09/09 04:19:17;;;;;;;58.97;3.60;;;;;;;;;;5072192;28;20447;-65
2022/09/09 04:21:44;;;;;;;58.93;3.37;;;;;;;;;;5073241;28;20939;-65
2022/09/09 04:24:11;;;;;;;60.27;3.60;;;;;;;;;;5068318;28;20485;-65
2022/09/09 04:26:38;;;;;;;58.67;3.10;;;;;;;;;;5067778;28;20470;-65
2022/09/09 04:29:07;;;;;;;58.97;3.23;;;;;;;;;;5073658;28;20447;-65
2022/09/09 04:31:35;;;;;;;58.67;3.10;;;;;;;;;;5073670;28;20459;-65
2022/09/09 04:34:05;;;;;;;58.67;3.03;;;;;;;;;;5072623;28;21010;-66
2022/09/09 04:36:34;;;;;;;58.80;3.30;;;;;;;;;;5065078;28;20455;-65
2022/09/09 04:39:01;;;;;;;58.90;3.30;;;;;;;;;;5071666;28;20494;-65
2022/09/09 04:41:28;;;;;;;58.47;2.80;;;;;;;;;;5071970;28;20447;-65
2022/09/09 04:43:55;;;;;;;59.90;3.40;;;;;;;;;;5072398;28;20467;-65
2022/09/09 04:46:23;;;;;;;59.40;3.43;;;;;;;;;;5069759;28;20495;-65
2022/09/09 04:48:50;;;;;;;59.37;3.40;;;;;;;;;;5071628;28;20859;-65
2022/09/09 04:51:18;;;;;;;59.07;3.30;;;;;;;;;;5073133;28;20945;-65
2022/09/09 04:53:47;;;;;;;58.43;2.73;;;;;;;;;;5071779;28;20838;-65
2022/09/09 04:56:15;;;;;;;58.40;3.10;;;;;;;;;;5067346;28;21013;-65
2022/09/09 04:58:43;;;;;;;63.13;3.47;;;;;;;;;;5072135;28;20449;-65
2022/09/09 05:01:11;;;;;;;60.27;3.57;;;;;;;;;;5072051;28;20445;-65
2022/09/09 05:03:39;;;;;;;61.10;3.33;;;;;;;;;;5071640;28;20479;-65
2022/09/09 05:06:08;;;;;;;58.30;3.07;;;;;;;;;;5072473;28;20579;-66
2022/09/09 05:08:35;;;;;;;59.37;2.97;;;;;;;;;;5065531;28;20460;-65
2022/09/09 05:11:03;;;;;;;58.30;2.90;;;;;;;;;;5072460;28;20448;-65
2022/09/09 05:13:31;;;;;;;58.20;3.00;;;;;;;;;;5071427;28;20480;-65
2022/09/09 05:15:59;;;;;;;65.00;3.10;;;;;;;;;;5069245;28;20471;-65
2022/09/09 05:18:26;;;;;;;58.50;2.90;;;;;;;;;;5070776;28;20478;-65
2022/09/09 05:20:53;;;;;;;58.60;2.93;;;;;;;;;;5071401;28;20453;-65
2022/09/09 05:23:20;;;;;;;58.57;2.80;;;;;;;;;;5070780;28;20470;-65
2022/09/09 05:25:56;;;;;;;58.40;3.30;;;;;;;;;;5069957;28;20488;-65
2022/09/09 05:28:25;;;;;;;59.87;3.40;;;;;;;;;;5069559;28;20817;-65
2022/09/09 05:31:00;;;;;;;59.50;3.10;;;;;;;;;;5071217;28;20448;-65
2022/09/09 05:33:27;;;;;;;58.20;2.80;;;;;;;;;;5070488;28;20608;-65
2022/09/09 05:36:01;;;;;;;57.97;2.67;;;;;;;;;;5034695;28;1063782;-65
2022/09/09 05:38:28;;;;;;;58.20;2.70;;;;;;;;;;5071499;28;20634;-65
2022/09/09 05:40:56;;;;;;;58.37;3.10;;;;;;;;;;5071524;28;20484;-65
2022/09/09 05:43:25;;;;;;;58.23;3.03;;;;;;;;;;5071321;28;21008;-65
2022/09/09 05:46:01;;;;;;;58.47;3.07;;;;;;;;;;5072992;28;20844;-65
2022/09/09 05:48:29;;;;;;;58.67;3.10;;;;;;;;;;5072345;28;20867;-65
2022/09/09 05:50:56;;;;;;;58.30;3.00;;;;;;;;;;5072296;28;20446;-65
2022/09/09 05:53:23;;;;;;;58.20;2.77;;;;;;;;;;5072137;28;20474;-65
2022/09/09 05:55:50;;;;;;;58.07;2.80;;;;;;;;;;5072104;28;20662;-65
2022/09/09 05:58:18;;;;;;;58.17;2.53;;;;;;;;;;5071926;28;20521;-65
2022/09/09 06:00:46;;;;;;;59.40;4.03;;;;;;;;;;5072148;28;20454;-65
2022/09/09 06:03:13;;;;;;;67.73;3.57;;;;;;;;;;5071628;28;20471;-65
2022/09/09 06:05:40;;;;;;;58.47;3.20;;;;;;;;;;5071699;28;20518;-65
2022/09/09 06:08:08;;;;;;;59.50;3.20;;;;;;;;;;5071217;28;20450;-65
2022/09/09 06:10:35;;;;;;;59.47;3.10;;;;;;;;;;5072442;28;20938;-65
2022/09/09 06:13:02;;;;;;;58.27;2.80;;;;;;;;;;5072048;28;20481;-65
2022/09/09 06:15:30;;;;;;;58.70;3.07;;;;;;;;;;5072226;28;20443;-65
2022/09/09 06:17:58;;;;;;;58.77;3.23;;;;;;;;;;5072272;28;20466;-65
2022/09/09 06:20:25;;;;;;;61.47;3.20;;;;;;;;;;5071535;28;20455;-65
2022/09/09 06:22:52;;;;;;;60.00;2.60;;;;;;;;;;5071494;28;20486;-65
2022/09/09 06:25:19;;;;;;;58.27;2.90;;;;;;;;;;5071381;28;20487;-65
2022/09/09 06:27:50;;;;;;;59.77;2.93;;;;;;;;;;5072725;28;20817;-65
2022/09/09 06:30:18;;;;;;;58.07;2.63;;;;;;;;;;5069531;28;20476;-64
2022/09/09 06:32:45;;;;;;;58.30;2.63;;;;;;;;;;5071550;28;20513;-63
2022/09/09 06:35:13;;;;;;;61.37;3.53;;;;;;;;;;5069103;28;20465;-63
2022/09/09 06:37:40;;;;;;;58.40;2.40;;;;;;;;;;5071691;28;20451;-63
2022/09/09 06:40:08;;;;;;;58.37;2.90;;;;;;;;;;5071471;28;20821;-63
2022/09/09 06:42:35;;;;;;;58.00;2.70;;;;;;;;;;5071691;28;20504;-63
2022/09/09 06:45:02;;;;;;;58.67;3.00;;;;;;;;;;5072079;28;20506;-63
2022/09/09 06:47:30;;;;;;;58.03;2.93;;;;;;;;;;5071594;28;20931;-63
2022/09/09 06:49:58;;;;;;;58.57;3.00;;;;;;;;;;5071342;28;20465;-63
2022/09/09 06:52:26;;;;;;;59.10;2.90;;;;;;;;;;5071906;28;20448;-63
2022/09/09 06:54:54;;;;;;;58.27;3.03;;;;;;;;;;5072154;28;20832;-65
2022/09/09 06:57:21;;;;;;;57.90;2.50;;;;;;;;;;5071632;28;20447;-65
2022/09/09 06:59:49;;;;;;;57.87;2.47;;;;;;;;;;5071499;28;20469;-65
2022/09/09 07:02:16;;;;;;;57.73;2.57;;;;;;;;;;5071542;28;20957;-65
2022/09/09 07:04:43;;;;;;;57.97;2.50;;;;;;;;;;5071984;28;20463;-65
2022/09/09 07:07:12;;;;;;;58.17;2.60;;;;;;;;;;5069556;28;20462;-65
2022/09/09 07:09:40;;;;;;;57.97;2.60;;;;;;;;;;5071382;28;20939;-65
2022/09/09 07:12:07;;;;;;;57.87;2.33;;;;;;;;;;5071820;28;20447;-65
2022/09/09 07:14:37;;;;;;;63.33;2.80;;;;;;;;;;5071706;28;20475;-65
2022/09/09 07:17:04;;;;;;;57.63;2.50;;;;;;;;;;5071297;28;20451;-65
2022/09/09 07:19:31;;;;;;;58.30;2.67;;;;;;;;;;5071505;28;20443;-65
2022/09/09 07:21:58;;;;;;;61.70;2.93;;;;;;;;;;5071427;28;20458;-65
2022/09/09 07:24:29;;;;;;;58.37;2.60;;;;;;;;;;5071679;28;20466;-65
2022/09/09 07:26:58;;;;;;;58.37;2.77;;;;;;;;;;5071724;28;20847;-65
2022/09/09 07:29:25;;;;;;;58.30;2.53;;;;;;;;;;5071106;28;20554;-65
2022/09/09 07:31:52;;;;;;;57.87;2.50;;;;;;;;;;5071495;28;20452;-65
2022/09/09 07:34:19;;;;;;;57.97;2.67;;;;;;;;;;5071263;28;20987;-65
2022/09/09 07:36:46;;;;;;;58.87;3.30;;;;;;;;;;5070905;28;20452;-65
2022/09/09 07:39:14;;;;;;;59.47;2.90;;;;;;;;;;5068767;28;20447;-65
2022/09/09 07:41:42;;;;;;;59.60;3.13;;;;;;;;;;5071190;28;20448;-65
2022/09/09 07:44:12;;;;;;;58.37;2.67;;;;;;;;;;5071252;28;20467;-65
2022/09/09 07:46:40;;;;;;;58.97;3.20;;;;;;;;;;5071506;28;20825;-65
2022/09/09 07:49:08;;;;;;;57.97;2.40;;;;;;;;;;5071141;28;20447;-65
2022/09/09 07:51:36;;;;;;;58.07;2.50;;;;;;;;;;5071402;28;20462;-65
2022/09/09 07:54:04;;;;;;;59.30;4.40;;;;;;;;;;5071300;28;20499;-65
2022/09/09 07:56:31;;;;;;;57.67;2.47;;;;;;;;;;5070748;28;20444;-65
2022/09/09 07:58:59;;;;;;;58.97;2.57;;;;;;;;;;5071079;28;20453;-65
2022/09/09 08:01:28;;;;;;;58.20;2.60;;;;;;;;;;5071155;28;20931;-65
2022/09/09 08:03:58;;;;;;;57.90;2.30;;;;;;;;;;5071369;28;20549;-65
2022/09/09 08:06:26;;;;;;;57.93;2.40;;;;;;;;;;5071099;28;20536;-65
2022/09/09 08:08:54;;;;;;;64.20;2.80;;;;;;;;;;5067834;28;20467;-65
2022/09/09 08:11:22;;;;;;;57.73;2.30;;;;;;;;;;5071368;28;20530;-65
2022/09/09 08:13:51;;;;;;;58.13;2.40;;;;;;;;;;5070994;28;20486;-64
2022/09/09 08:16:21;;;;;;;58.07;2.37;;;;;;;;;;5070714;28;20501;-65
2022/09/09 08:18:51;;;;;;;58.67;3.20;;;;;;;;;;5070632;28;20656;-65
2022/09/09 08:21:19;;;;;;;60.00;2.83;;;;;;;;;;5070817;28;20967;-65
2022/09/09 08:23:47;;;;;;;57.97;2.50;;;;;;;;;;5070974;28;20836;-65
2022/09/09 08:26:15;;;;;;;58.10;2.50;;;;;;;;;;5071076;28;20877;-65
2022/09/09 08:28:43;;;;;;;58.50;2.80;;;;;;;;;;5070895;28;20447;-65
2022/09/09 08:31:11;;;;;;;57.87;2.30;;;;;;;;;;5074723;28;20450;-65
2022/09/09 08:33:39;;;;;;;58.30;2.53;;;;;;;;;;5074542;28;20999;-65
2022/09/09 08:36:08;;;;;;;57.53;2.40;;;;;;;;;;5073963;28;20454;-65
2022/09/09 08:38:37;;;;;;;59.63;3.03;;;;;;;;;;5074228;28;20846;-65
2022/09/09 08:41:08;;;;;;;58.07;2.40;;;;;;;;;;5072505;28;20517;-65
2022/09/09 08:43:35;;;;;;;57.90;2.33;;;;;;;;;;5074204;28;20498;-65
2022/09/09 08:46:07;;;;;;;58.20;2.47;;;;;;;;;;5074135;28;20478;-65
2022/09/09 08:48:45;;;;;;;59.13;2.63;;;;;;;;;;5073834;28;20461;-65
2022/09/09 08:51:14;;;;;;;58.03;2.67;;;;;;;;;;5074420;28;20457;-65
2022/09/09 08:53:44;;;;;;;57.77;2.30;;;;;;;;;;5074461;28;20477;-65
2022/09/09 08:56:14;;;;;;;57.73;2.30;;;;;;;;;;5074141;28;20451;-65
2022/09/09 08:58:43;;;;;;;59.20;2.63;;;;;;;;;;5073523;28;20447;-65
2022/09/09 09:01:29;;;;;;;62.13;2.80;;;;;;;;;;5073989;28;20547;-64
2022/09/09 09:04:01;;;;;;;57.97;2.50;;;;;;;;;;5073942;28;20474;-65
2022/09/09 09:06:37;;;;;;;64.27;2.40;;;;;;;;;;5074030;28;20479;-65
2022/09/09 09:09:06;;;;;;;58.53;2.67;;;;;;;;;;5073454;28;20800;-65
2022/09/09 09:11:37;;;;;;;58.40;2.60;;;;;;;;;;5070729;28;21355;-65
2022/09/09 09:14:05;;;;;;;58.20;2.90;;;;;;;;;;5073477;28;20474;-65
2022/09/09 09:16:35;;;;;;;58.93;2.77;;;;;;;;;;5073613;28;20448;-65
2022/09/09 09:19:02;;;;;;;58.70;2.40;;;;;;;;;;5073460;28;20451;-65
2022/09/09 09:21:44;;;;;;;60.40;3.10;;;;;;;;;;5073529;28;20457;-65
2022/09/09 09:24:16;;;;;;;58.17;2.73;;;;;;;;;;5073569;28;20528;-65
2022/09/09 09:26:44;;;;;;;57.97;2.30;;;;;;;;;;5073723;28;20482;-65
2022/09/09 09:29:14;;;;;;;58.53;2.83;;;;;;;;;;5073293;28;20853;-65
2022/09/09 09:31:43;;;;;;;57.40;2.47;;;;;;;;;;5073551;28;20451;-65
2022/09/09 09:34:11;;;;;;;60.57;2.90;;;;;;;;;;5073332;28;20471;-65
2022/09/09 09:36:44;;;;;;;57.30;2.03;;;;;;;;;;5073183;28;20513;-65
2022/09/09 09:39:11;;;;;;;58.30;2.00;;;;;;;;;;5072830;28;20465;-65
2022/09/09 09:41:40;;;;;;;57.63;2.33;;;;;;;;;;5072076;28;20451;-65
2022/09/09 09:44:21;;;;;;;57.70;2.10;;;;;;;;;;5070480;28;20559;-65
2022/09/09 09:46:48;;;;;;;57.87;2.37;;;;;;;;;;5072955;28;20483;-65
2022/09/09 09:49:15;;;;;;;58.17;2.40;;;;;;;;;;5072974;28;20881;-65
2022/09/09 09:51:44;;;;;;;57.73;2.13;;;;;;;;;;5073292;28;20482;-65
2022/09/09 09:54:16;;;;;;;57.87;2.43;;;;;;;;;;5073123;28;20471;-65
2022/09/09 09:56:44;;;;;;;58.50;2.50;;;;;;;;;;5073048;28;20870;-65
2022/09/09 09:59:21;;;;;;;57.87;1.87;;;;;;;;;;5072187;28;20450;-65
2022/09/09 10:01:48;;;;;;;57.70;2.50;;;;;;;;;;5072833;28;20454;-65
2022/09/09 10:04:18;;;;;;;58.50;2.10;;;;;;;;;;5072424;28;20479;-65
2022/09/09 10:06:46;;;;;;;58.07;2.30;;;;;;;;;;5072942;28;20524;-63
2022/09/09 10:09:22;;;;;;;58.20;1.97;;;;;;;;;;5072474;28;20447;-63
2022/09/09 10:11:52;;;;;;;58.27;2.10;;;;;;;;;;5072471;28;20443;-64
2022/09/09 10:14:21;;;;;;;57.47;1.97;;;;;;;;;;5070926;28;20471;-63
2022/09/09 10:17:06;;;;;;;57.23;1.70;;;;;;;;;;5072584;28;20479;-63
2022/09/09 10:19:34;;;;;;;57.57;1.70;;;;;;;;;;5071923;28;20451;-63
2022/09/09 10:22:21;;;;;;;57.10;1.90;;;;;;;;;;5072308;28;20458;-64
2022/09/09 10:25:07;;;;;;;60.77;1.90;;;;;;;;;;5072442;28;20513;-64
2022/09/09 10:27:37;;;;;;;56.97;1.90;;;;;;;;;;5063020;28;20597;-64
2022/09/09 10:30:13;;;;;;;57.17;1.70;;;;;;;;;;5072069;28;20817;-64
2022/09/09 10:32:47;;;;;;;57.03;1.73;;;;;;;;;;5071970;28;20442;-63
2022/09/09 10:35:19;;;;;;;57.07;1.80;;;;;;;;;;5072108;28;20956;-63
2022/09/09 10:37:54;;;;;;;57.03;1.80;;;;;;;;;;5072204;28;20536;-64
2022/09/09 10:40:25;;;;;;;56.60;1.60;;;;;;;;;;5071898;28;20542;-63
2022/09/09 10:42:52;;;;;;;57.10;1.80;;;;;;;;;;5071919;28;20474;-64
2022/09/09 10:45:22;;;;;;;57.20;1.70;;;;;;;;;;5069958;28;20459;-65
2022/09/09 10:47:58;;;;;;;58.17;1.80;;;;;;;;;;5071930;28;20486;-65
2022/09/09 10:50:40;;;;;;;57.10;1.70;;;;;;;;;;5071872;28;20817;-64
2022/09/09 10:53:15;;;;;;;57.10;1.80;;;;;;;;;;5069279;28;20471;-65
2022/09/09 10:55:43;;;;;;;58.37;1.60;;;;;;;;;;5071922;28;20455;-64
2022/09/09 10:58:14;;;;;;;58.27;1.90;;;;;;;;;;5071759;28;20827;-65
2022/09/09 11:00:45;;;;;;;57.07;1.63;;;;;;;;;;5071360;28;20447;-65
2022/09/09 11:03:18;;;;;;;57.20;1.70;;;;;;;;;;5072027;28;20467;-64
2022/09/09 11:05:48;;;;;;;57.50;2.00;;;;;;;;;;5071608;28;20538;-64
2022/09/09 11:08:18;;;;;;;57.80;2.00;;;;;;;;;;5071811;28;20489;-64
2022/09/09 11:10:48;;;;;;;57.70;2.00;;;;;;;;;;5071664;28;20444;-65
2022/09/09 11:13:17;;;;;;;58.60;2.73;;;;;;;;;;5071581;28;20466;-64
2022/09/09 11:15:46;;;;;;;57.83;2.17;;;;;;;;;;5071403;28;20455;-64
2022/09/09 11:18:15;;;;;;;57.80;1.80;;;;;;;;;;5068885;28;20451;-64
2022/09/09 11:20:43;;;;;;;58.03;2.37;;;;;;;;;;5070887;28;20452;-64
2022/09/09 11:23:13;;;;;;;57.37;1.90;;;;;;;;;;5071478;28;20470;-64
2022/09/09 11:25:45;;;;;;;58.00;1.90;;;;;;;;;;5071832;28;20451;-64
2022/09/09 11:28:33;;;;;;;58.00;2.30;;;;;;;;;;5071538;28;20526;-64
2022/09/09 11:31:07;;;;;;;56.67;1.97;;;;;;;;;;5066757;28;20849;-64
2022/09/09 11:33:59;;;;;;;57.37;2.10;;;;;;;;;;5071224;28;20471;-64
2022/09/09 11:36:40;;;;;;;58.20;2.20;;;;;;;;;;5071134;28;20487;-64
2022/09/09 11:39:16;;;;;;;58.03;2.20;;;;;;;;;;5070680;28;20443;-65
2022/09/09 11:41:45;;;;;;;58.10;2.67;;;;;;;;;;5071190;28;20443;-64
2022/09/09 11:44:13;;;;;;;58.70;2.47;;;;;;;;;;5071173;28;20464;-64
2022/09/09 11:46:42;;;;;;;57.57;2.40;;;;;;;;;;5071038;28;20483;-64
2022/09/09 11:49:28;;;;;;;57.77;2.17;;;;;;;;;;5068399;28;20474;-64
2022/09/09 11:51:55;;;;;;;59.33;2.30;;;;;;;;;;5071196;28;20458;-64
2022/09/09 11:54:30;;;;;;;58.50;3.03;;;;;;;;;;5071025;28;20471;-64
2022/09/09 11:56:59;;;;;;;59.30;2.60;;;;;;;;;;5071275;28;20439;-64
2022/09/09 11:59:27;;;;;;;60.93;2.37;;;;;;;;;;5070751;28;20454;-64
2022/09/09 12:01:57;;;;;;;57.87;2.07;;;;;;;;;;5071059;28;20443;-64
2022/09/09 12:04:29;;;;;;;58.40;3.00;;;;;;;;;;5072024;28;20979;-64
2022/09/09 12:06:58;;;;;;;57.90;2.20;;;;;;;;;;5074883;28;20487;-64
2022/09/09 12:09:29;;;;;;;57.93;2.37;;;;;;;;;;5074922;28;20451;-64
2022/09/09 12:12:08;;;;;;;57.90;2.20;;;;;;;;;;5075288;28;20560;-64
2022/09/09 12:14:39;;;;;;;57.80;2.03;;;;;;;;;;5074701;28;20463;-64
2022/09/09 12:17:20;;;;;;;57.80;1.90;;;;;;;;;;5075179;28;20444;-64
2022/09/09 12:19:48;;;;;;;57.47;2.13;;;;;;;;;;5072050;28;20458;-64
2022/09/09 12:22:21;;;;;;;57.67;2.10;;;;;;;;;;5074597;28;20447;-64
2022/09/09 12:24:51;;;;;;;57.50;2.20;;;;;;;;;;5074565;28;20475;-64
2022/09/09 12:27:22;;;;;;;57.17;2.00;;;;;;;;;;5074585;28;20475;-64
2022/09/09 12:29:53;;;;;;;57.67;2.00;;;;;;;;;;5074319;28;20823;-64
2022/09/09 12:32:22;;;;;;;57.60;2.10;;;;;;;;;;5074507;28;20454;-64
2022/09/09 12:34:53;;;;;;;57.63;2.00;;;;;;;;;;5074379;28;20474;-64
2022/09/09 12:37:26;;;;;;;57.37;1.80;;;;;;;;;;5074594;28;20439;-64
2022/09/09 12:39:56;;;;;;;57.60;1.90;;;;;;;;;;5073877;28;20947;-64
2022/09/09 12:42:25;;;;;;;57.60;1.90;;;;;;;;;;5074337;28;20447;-64
2022/09/09 12:44:53;;;;;;;57.33;1.80;;;;;;;;;;5074258;28;20959;-64
2022/09/09 12:47:22;;;;;;;57.47;1.80;;;;;;;;;;5074281;28;20479;-64
2022/09/09 12:49:49;;;;;;;57.57;2.30;;;;;;;;;;5074055;28;20501;-64
2022/09/09 12:52:22;;;;;;;57.40;1.80;;;;;;;;;;5072794;28;20454;-64
2022/09/09 12:54:51;;;;;;;57.20;1.60;;;;;;;;;;5073947;28;20468;-64
2022/09/09 12:57:18;;;;;;;57.30;1.60;;;;;;;;;;5074285;28;20534;-64
2022/09/09 12:59:48;;;;;;;58.10;1.90;;;;;;;;;;5073561;28;20542;-64
2022/09/09 13:02:20;;;;;;;57.50;1.80;;;;;;;;;;5073715;28;20554;-64
2022/09/09 13:04:48;;;;;;;58.20;1.90;;;;;;;;;;5073661;28;20525;-64
2022/09/09 13:07:16;;;;;;;57.57;2.20;;;;;;;;;;5074011;28;21134;-64
2022/09/09 13:09:43;;;;;;;57.33;2.10;;;;;;;;;;5073835;28;20521;-64
2022/09/09 13:12:15;;;;;;;58.20;2.30;;;;;;;;;;5074002;28;20827;-64
2022/09/09 13:14:44;;;;;;;57.10;2.00;;;;;;;;;;5073396;28;20467;-64
2022/09/09 13:17:19;;;;;;;57.50;2.33;;;;;;;;;;5073650;28;20451;-64
2022/09/09 13:19:47;;;;;;;57.37;1.87;;;;;;;;;;5073557;28;20461;-64
2022/09/09 13:22:14;;;;;;;57.60;2.00;;;;;;;;;;5070632;28;20451;-64
2022/09/09 13:24:42;;;;;;;57.87;2.10;;;;;;;;;;5073453;28;20968;-64
2022/09/09 13:27:24;;;;;;;57.50;2.10;;;;;;;;;;5073522;28;20525;-64
2022/09/09 13:29:55;;;;;;;57.57;2.20;;;;;;;;;;5073054;28;20447;-64
2022/09/09 13:32:24;;;;;;;57.80;2.20;;;;;;;;;;5073684;28;20538;-63
2022/09/09 13:34:53;;;;;;;57.33;2.00;;;;;;;;;;5073349;28;20443;-64
2022/09/09 13:37:23;;;;;;;58.10;2.40;;;;;;;;;;5073595;28;20446;-64
2022/09/09 13:39:53;;;;;;;58.47;2.20;;;;;;;;;;5073161;28;20440;-63
2022/09/09 13:42:25;;;;;;;57.80;2.17;;;;;;;;;;5072805;28;20943;-64
2022/09/09 13:44:53;;;;;;;57.77;2.30;;;;;;;;;;5073171;28;20500;-64
2022/09/09 13:47:21;;;;;;;56.87;2.20;;;;;;;;;;5072702;28;20479;-64
2022/09/09 13:49:49;;;;;;;57.87;2.13;;;;;;;;;;5072653;28;20447;-64
2022/09/09 13:52:18;;;;;;;57.27;2.00;;;;;;;;;;5073174;28;20443;-64
2022/09/09 13:54:49;;;;;;;57.50;1.87;;;;;;;;;;5070454;28;20518;-64
2022/09/09 13:57:17;;;;;;;57.90;1.90;;;;;;;;;;5073304;28;20447;-64
2022/09/09 13:59:45;;;;;;;57.17;1.80;;;;;;;;;;5072557;28;20455;-64
2022/09/09 14:02:12;;;;;;;57.27;1.80;;;;;;;;;;5072702;28;20545;-64
2022/09/09 14:04:41;;;;;;;56.93;1.80;;;;;;;;;;5072548;28;20480;-64
2022/09/09 14:07:10;;;;;;;57.90;2.00;;;;;;;;;;5072427;28;20936;-64
2022/09/09 14:09:37;;;;;;;58.20;2.13;;;;;;;;;;5071831;28;20924;-64
2022/09/09 14:12:05;;;;;;;57.90;1.90;;;;;;;;;;5072785;28;20450;-64
2022/09/09 14:14:32;;;;;;;57.70;2.20;;;;;;;;;;5072581;28;20467;-64
2022/09/09 14:16:59;;;;;;;58.03;1.90;;;;;;;;;;5072347;28;20947;-64
2022/09/09 14:19:27;;;;;;;57.27;2.10;;;;;;;;;;5072197;28;20454;-64
2022/09/09 14:21:54;;;;;;;57.27;1.80;;;;;;;;;;5072207;28;20585;-64
2022/09/09 14:24:22;;;;;;;58.03;2.00;;;;;;;;;;5069851;28;20714;-64
2022/09/09 14:26:49;;;;;;;57.40;1.93;;;;;;;;;;5071789;28;20452;-64
2022/09/09 14:29:16;;;;;;;57.33;1.90;;;;;;;;;;5071811;28;20479;-64
2022/09/09 14:31:43;;;;;;;58.53;2.20;;;;;;;;;;5072371;28;20452;-64
2022/09/09 14:34:11;;;;;;;57.17;2.20;;;;;;;;;;5072130;28;20979;-64
2022/09/09 14:36:38;;;;;;;57.27;1.90;;;;;;;;;;5071742;28;20463;-64
2022/09/09 14:39:05;;;;;;;57.47;1.90;;;;;;;;;;5072047;28;20451;-64
2022/09/09 14:41:33;;;;;;;59.07;2.20;;;;;;;;;;5072156;28;20462;-63
2022/09/09 14:44:00;;;;;;;57.37;1.80;;;;;;;;;;5071828;28;20476;-64
2022/09/09 14:46:28;;;;;;;57.47;1.90;;;;;;;;;;5072540;28;20792;-64